sensor_id;sensor_type;location;lat;lon;timestamp;pressure;altitude;pressure_sealevel;temperature;humidity
67842;BME280;54642;59.126;37.876;2023-02-12T00:00:49;99397.13;;;-2.34;75.29
67842;BME280;54642;59.126;37.876;2023-02-12T00:03:16;99391.13;;;-2.36;75.44
67842;BME280;54642;59.126;37.876;2023-02-12T00:05:42;99391.13;;;-2.36;75.59
67842;BME280;54642;59.126;37.876;2023-02-12T00:08:08;99398.69;;;-2.37;75.29
67842;BME280;54642;59.126;37.876;2023-02-12T00:10:40;99351.09;;;-2.67;75.30
67842;BME280;54642;59.126;37.876;2023-02-12T00:13:08;99363.94;;;-2.62;75.34
67842;BME280;54642;59.126;37.876;2023-02-12T00:15:38;99409.16;;;-2.52;75.46
67842;BME280;54642;59.126;37.876;2023-02-12T00:18:03;99395.75;;;-2.48;74.95
67842;BME280;54642;59.126;37.876;2023-02-12T00:20:29;99396.47;;;-2.52;74.97
67842;BME280;54642;59.126;37.876;2023-02-12T00:22:55;99405.06;;;-2.47;74.90
67842;BME280;54642;59.126;37.876;2023-02-12T00:25:21;99417.59;;;-2.52;74.82
67842;BME280;54642;59.126;37.876;2023-02-12T00:27:47;99410.28;;;-2.66;74.92
67842;BME280;54642;59.126;37.876;2023-02-12T00:30:13;99367.19;;;-2.89;74.89
67842;BME280;54642;59.126;37.876;2023-02-12T00:32:39;99427.47;;;-2.59;75.33
67842;BME280;54642;59.126;37.876;2023-02-12T00:35:06;99423.97;;;-2.63;75.23
67842;BME280;54642;59.126;37.876;2023-02-12T00:37:32;99390.63;;;-2.95;75.61
67842;BME280;54642;59.126;37.876;2023-02-12T00:39:58;99387.53;;;-2.88;75.46
67842;BME280;54642;59.126;37.876;2023-02-12T00:42:23;99411.94;;;-2.67;75.31
67842;BME280;54642;59.126;37.876;2023-02-12T00:44:49;99440.25;;;-2.56;75.17
67842;BME280;54642;59.126;37.876;2023-02-12T00:47:15;99436.00;;;-2.80;74.79
67842;BME280;54642;59.126;37.876;2023-02-12T00:49:41;99424.09;;;-2.81;74.58
67842;BME280;54642;59.126;37.876;2023-02-12T00:52:07;99413.75;;;-2.87;74.85
67842;BME280;54642;59.126;37.876;2023-02-12T00:54:33;99426.41;;;-2.87;75.12
67842;BME280;54642;59.126;37.876;2023-02-12T00:56:59;99442.63;;;-2.83;75.16
67842;BME280;54642;59.126;37.876;2023-02-12T00:59:29;99454.66;;;-2.78;75.44
67842;BME280;54642;59.126;37.876;2023-02-12T01:01:55;99410.66;;;-3.01;75.37
67842;BME280;54642;59.126;37.876;2023-02-12T01:04:22;99412.13;;;-3.08;75.35
67842;BME280;54642;59.126;37.876;2023-02-12T01:06:48;99456.16;;;-2.83;75.19
67842;BME280;54642;59.126;37.876;2023-02-12T01:09:14;99465.50;;;-2.82;74.88
67842;BME280;54642;59.126;37.876;2023-02-12T01:11:40;99412.19;;;-3.27;74.50
67842;BME280;54642;59.126;37.876;2023-02-12T01:14:07;99482.91;;;-2.91;74.27
67842;BME280;54642;59.126;37.876;2023-02-12T01:16:33;99487.97;;;-2.91;74.23
67842;BME280;54642;59.126;37.876;2023-02-12T01:19:02;99478.94;;;-3.05;74.42
67842;BME280;54642;59.126;37.876;2023-02-12T01:21:30;99427.13;;;-3.33;74.44
67842;BME280;54642;59.126;37.876;2023-02-12T01:23:57;99446.69;;;-3.31;74.37
67842;BME280;54642;59.126;37.876;2023-02-12T01:26:23;99486.53;;;-3.27;74.38
67842;BME280;54642;59.126;37.876;2023-02-12T01:28:52;99545.16;;;-2.98;74.21
67842;BME280;54642;59.126;37.876;2023-02-12T01:31:22;99518.19;;;-3.17;74.01
67842;BME280;54642;59.126;37.876;2023-02-12T01:33:54;99532.84;;;-3.10;74.00
67842;BME280;54642;59.126;37.876;2023-02-12T01:36:21;99551.25;;;-3.14;73.86
67842;BME280;54642;59.126;37.876;2023-02-12T01:38:48;99489.97;;;-3.46;73.89
67842;BME280;54642;59.126;37.876;2023-02-12T01:41:16;99552.88;;;-3.16;73.52
67842;BME280;54642;59.126;37.876;2023-02-12T01:43:43;99541.09;;;-3.35;73.49
67842;BME280;54642;59.126;37.876;2023-02-12T01:46:12;99521.91;;;-3.49;73.58
67842;BME280;54642;59.126;37.876;2023-02-12T01:48:41;99543.22;;;-3.44;73.56
67842;BME280;54642;59.126;37.876;2023-02-12T01:51:11;99567.16;;;-3.37;73.38
67842;BME280;54642;59.126;37.876;2023-02-12T01:53:42;99535.91;;;-3.57;73.50
67842;BME280;54642;59.126;37.876;2023-02-12T01:56:09;99553.22;;;-3.47;73.39
67842;BME280;54642;59.126;37.876;2023-02-12T01:58:37;99581.69;;;-3.33;73.66
67842;BME280;54642;59.126;37.876;2023-02-12T02:01:05;99570.69;;;-3.53;73.14
67842;BME280;54642;59.126;37.876;2023-02-12T02:03:35;99524.66;;;-3.84;73.01
67842;BME280;54642;59.126;37.876;2023-02-12T02:06:09;99607.16;;;-3.50;73.54
67842;BME280;54642;59.126;37.876;2023-02-12T02:08:38;99579.69;;;-3.60;72.98
67842;BME280;54642;59.126;37.876;2023-02-12T02:11:04;99592.44;;;-3.58;73.24
67842;BME280;54642;59.126;37.876;2023-02-12T02:13:51;99554.78;;;-3.90;73.15
67842;BME280;54642;59.126;37.876;2023-02-12T02:16:35;99609.38;;;-3.57;73.06
67842;BME280;54642;59.126;37.876;2023-02-12T02:19:11;99546.16;;;-4.13;72.76
67842;BME280;54642;59.126;37.876;2023-02-12T02:22:05;99623.13;;;-3.90;72.93
67842;BME280;54642;59.126;37.876;2023-02-12T02:31:03;99639.19;;;-4.07;72.78
67842;BME280;54642;59.126;37.876;2023-02-12T02:33:58;99657.16;;;-4.01;73.01
67842;BME280;54642;59.126;37.876;2023-02-12T02:36:36;99652.94;;;-4.20;72.73
67842;BME280;54642;59.126;37.876;2023-02-12T02:44:43;99647.78;;;-4.22;73.13
67842;BME280;54642;59.126;37.876;2023-02-12T02:47:13;99614.75;;;-4.43;72.77
67842;BME280;54642;59.126;37.876;2023-02-12T02:49:47;99612.88;;;-4.47;72.97
67842;BME280;54642;59.126;37.876;2023-02-12T02:52:23;99630.78;;;-4.42;72.73
67842;BME280;54642;59.126;37.876;2023-02-12T02:54:55;99656.75;;;-4.28;72.75
67842;BME280;54642;59.126;37.876;2023-02-12T02:57:56;99693.91;;;-4.09;72.66
67842;BME280;54642;59.126;37.876;2023-02-12T03:00:31;99677.50;;;-4.17;73.02
67842;BME280;54642;59.126;37.876;2023-02-12T03:03:04;99695.38;;;-4.14;72.82
67842;BME280;54642;59.126;37.876;2023-02-12T03:05:37;99648.38;;;-4.45;72.85
67842;BME280;54642;59.126;37.876;2023-02-12T03:08:07;99643.22;;;-4.47;72.58
67842;BME280;54642;59.126;37.876;2023-02-12T03:10:42;99691.72;;;-4.37;72.49
67842;BME280;54642;59.126;37.876;2023-02-12T03:13:15;99700.25;;;-4.35;72.36
67842;BME280;54642;59.126;37.876;2023-02-12T03:16:03;99737.28;;;-4.19;72.56
67842;BME280;54642;59.126;37.876;2023-02-12T03:18:40;99701.91;;;-4.36;72.53
67842;BME280;54642;59.126;37.876;2023-02-12T03:21:11;99711.81;;;-4.23;72.59
67842;BME280;54642;59.126;37.876;2023-02-12T03:23:47;99728.69;;;-4.23;72.75
67842;BME280;54642;59.126;37.876;2023-02-12T03:26:21;99676.34;;;-4.58;72.58
67842;BME280;54642;59.126;37.876;2023-02-12T03:28:49;99708.81;;;-4.50;72.68
67842;BME280;54642;59.126;37.876;2023-02-12T03:34:39;99764.34;;;-4.18;72.40
67842;BME280;54642;59.126;37.876;2023-02-12T03:39:52;99775.06;;;-4.23;72.09
67842;BME280;54642;59.126;37.876;2023-02-12T03:50:18;99783.47;;;-4.40;71.82
67842;BME280;54642;59.126;37.876;2023-02-12T03:52:48;99775.22;;;-4.54;71.71
67842;BME280;54642;59.126;37.876;2023-02-12T03:55:15;99738.94;;;-4.71;72.07
67842;BME280;54642;59.126;37.876;2023-02-12T03:57:45;99687.56;;;-4.88;71.97
67842;BME280;54642;59.126;37.876;2023-02-12T04:00:18;99785.41;;;-4.36;71.94
67842;BME280;54642;59.126;37.876;2023-02-12T04:02:46;99771.06;;;-4.35;71.79
67842;BME280;54642;59.126;37.876;2023-02-12T04:05:21;99775.50;;;-4.48;72.10
67842;BME280;54642;59.126;37.876;2023-02-12T04:07:48;99779.16;;;-4.43;72.25
67842;BME280;54642;59.126;37.876;2023-02-12T04:10:15;99804.53;;;-4.41;72.26
67842;BME280;54642;59.126;37.876;2023-02-12T04:18:30;99747.81;;;-4.79;72.15
67842;BME280;54642;59.126;37.876;2023-02-12T04:26:38;99832.03;;;-4.31;71.89
67842;BME280;54642;59.126;37.876;2023-02-12T04:29:16;99764.72;;;-4.78;71.89
67842;BME280;54642;59.126;37.876;2023-02-12T04:36:58;99839.56;;;-4.49;71.66
67842;BME280;54642;59.126;37.876;2023-02-12T04:39:29;99842.59;;;-4.54;71.50
67842;BME280;54642;59.126;37.876;2023-02-12T04:42:00;99802.31;;;-4.84;71.50
67842;BME280;54642;59.126;37.876;2023-02-12T04:44:29;99869.91;;;-4.49;71.67
67842;BME280;54642;59.126;37.876;2023-02-12T04:46:55;99882.53;;;-4.49;71.79
67842;BME280;54642;59.126;37.876;2023-02-12T04:49:22;99891.78;;;-4.49;71.70
67842;BME280;54642;59.126;37.876;2023-02-12T04:51:49;99919.50;;;-4.51;71.94
67842;BME280;54642;59.126;37.876;2023-02-12T04:54:17;99829.78;;;-4.90;71.69
67842;BME280;54642;59.126;37.876;2023-02-12T04:56:44;99879.69;;;-4.55;71.66
67842;BME280;54642;59.126;37.876;2023-02-12T04:59:11;99805.78;;;-4.99;71.55
67842;BME280;54642;59.126;37.876;2023-02-12T05:01:39;99886.31;;;-4.57;71.61
67842;BME280;54642;59.126;37.876;2023-02-12T05:04:06;99874.06;;;-4.66;71.49
67842;BME280;54642;59.126;37.876;2023-02-12T05:06:37;99878.16;;;-4.68;71.65
67842;BME280;54642;59.126;37.876;2023-02-12T05:09:05;99916.97;;;-4.51;71.61
67842;BME280;54642;59.126;37.876;2023-02-12T05:11:31;99886.00;;;-4.63;71.30
67842;BME280;54642;59.126;37.876;2023-02-12T05:13:57;99835.47;;;-4.94;71.46
67842;BME280;54642;59.126;37.876;2023-02-12T05:16:24;99830.97;;;-5.00;71.71
67842;BME280;54642;59.126;37.876;2023-02-12T05:18:50;99918.41;;;-4.56;71.58
67842;BME280;54642;59.126;37.876;2023-02-12T05:21:16;99915.63;;;-4.61;71.57
67842;BME280;54642;59.126;37.876;2023-02-12T05:23:42;99935.56;;;-4.50;71.93
67842;BME280;54642;59.126;37.876;2023-02-12T05:26:15;99927.50;;;-4.60;71.63
67842;BME280;54642;59.126;37.876;2023-02-12T05:28:42;99955.09;;;-4.48;71.68
67842;BME280;54642;59.126;37.876;2023-02-12T05:31:09;99936.97;;;-4.55;71.96
67842;BME280;54642;59.126;37.876;2023-02-12T05:33:36;99951.88;;;-4.45;71.57
67842;BME280;54642;59.126;37.876;2023-02-12T05:36:07;99947.91;;;-4.40;71.89
67842;BME280;54642;59.126;37.876;2023-02-12T05:38:34;99952.19;;;-4.39;71.92
67842;BME280;54642;59.126;37.876;2023-02-12T05:41:08;99920.69;;;-4.61;71.58
67842;BME280;54642;59.126;37.876;2023-02-12T05:43:34;99947.50;;;-4.48;71.34
67842;BME280;54642;59.126;37.876;2023-02-12T05:46:02;99961.19;;;-4.44;71.30
67842;BME280;54642;59.126;37.876;2023-02-12T05:48:29;99965.59;;;-4.40;71.51
67842;BME280;54642;59.126;37.876;2023-02-12T05:53:29;99928.06;;;-4.80;71.82
67842;BME280;54642;59.126;37.876;2023-02-12T05:56:25;99981.31;;;-4.46;71.97
67842;BME280;54642;59.126;37.876;2023-02-12T05:59:04;99958.63;;;-4.61;71.70
67842;BME280;54642;59.126;37.876;2023-02-12T06:01:38;99922.84;;;-4.83;71.93
67842;BME280;54642;59.126;37.876;2023-02-12T06:04:07;99959.25;;;-4.65;71.90
67842;BME280;54642;59.126;37.876;2023-02-12T06:06:33;99997.22;;;-4.48;72.03
67842;BME280;54642;59.126;37.876;2023-02-12T06:09:00;99997.13;;;-4.50;71.73
67842;BME280;54642;59.126;37.876;2023-02-12T06:11:26;99950.53;;;-4.70;71.68
67842;BME280;54642;59.126;37.876;2023-02-12T06:13:52;100001.91;;;-4.39;71.94
67842;BME280;54642;59.126;37.876;2023-02-12T06:16:23;99916.53;;;-4.91;71.81
67842;BME280;54642;59.126;37.876;2023-02-12T06:18:50;99931.47;;;-4.80;71.82
67842;BME280;54642;59.126;37.876;2023-02-12T06:21:17;99996.09;;;-4.53;71.82
67842;BME280;54642;59.126;37.876;2023-02-12T06:23:44;100007.34;;;-4.48;71.86
67842;BME280;54642;59.126;37.876;2023-02-12T06:26:10;100003.16;;;-4.48;71.97
67842;BME280;54642;59.126;37.876;2023-02-12T06:28:36;100005.00;;;-4.45;71.92
67842;BME280;54642;59.126;37.876;2023-02-12T06:31:02;100005.00;;;-4.45;71.86
67842;BME280;54642;59.126;37.876;2023-02-12T06:33:28;99966.41;;;-4.72;71.58
67842;BME280;54642;59.126;37.876;2023-02-12T06:35:55;99998.00;;;-4.49;71.94
67842;BME280;54642;59.126;37.876;2023-02-12T06:38:21;99970.22;;;-4.64;71.61
67842;BME280;54642;59.126;37.876;2023-02-12T06:40:47;100017.22;;;-4.36;71.35
67842;BME280;54642;59.126;37.876;2023-02-12T06:43:12;100009.88;;;-4.48;71.24
67842;BME280;54642;59.126;37.876;2023-02-12T06:45:38;100019.72;;;-4.38;71.55
67842;BME280;54642;59.126;37.876;2023-02-12T06:48:04;99933.84;;;-4.83;71.31
67842;BME280;54642;59.126;37.876;2023-02-12T06:50:30;100018.25;;;-4.33;71.42
67842;BME280;54642;59.126;37.876;2023-02-12T06:52:57;99937.06;;;-4.85;71.17
67842;BME280;54642;59.126;37.876;2023-02-12T06:55:24;100001.16;;;-4.53;71.42
67842;BME280;54642;59.126;37.876;2023-02-12T06:57:50;100028.53;;;-4.46;71.44
67842;BME280;54642;59.126;37.876;2023-02-12T07:00:16;100016.16;;;-4.56;71.57
67842;BME280;54642;59.126;37.876;2023-02-12T07:02:42;99973.50;;;-4.82;71.72
67842;BME280;54642;59.126;37.876;2023-02-12T07:05:08;100028.69;;;-4.43;71.76
67842;BME280;54642;59.126;37.876;2023-02-12T07:07:35;100037.34;;;-4.54;71.42
67842;BME280;54642;59.126;37.876;2023-02-12T07:10:01;100005.09;;;-4.58;71.60
67842;BME280;54642;59.126;37.876;2023-02-12T07:12:27;100027.91;;;-4.42;71.41
67842;BME280;54642;59.126;37.876;2023-02-12T07:14:53;99969.66;;;-4.75;71.44
67842;BME280;54642;59.126;37.876;2023-02-12T07:17:19;100055.25;;;-4.35;71.45
67842;BME280;54642;59.126;37.876;2023-02-12T07:19:44;100095.97;;;-4.15;71.23
67842;BME280;54642;59.126;37.876;2023-02-12T07:22:10;100077.03;;;-4.22;71.22
67842;BME280;54642;59.126;37.876;2023-02-12T07:24:36;100040.84;;;-4.52;71.38
67842;BME280;54642;59.126;37.876;2023-02-12T07:27:03;100005.53;;;-4.66;71.30
67842;BME280;54642;59.126;37.876;2023-02-12T07:29:29;100066.88;;;-4.38;71.19
67842;BME280;54642;59.126;37.876;2023-02-12T07:31:55;100065.25;;;-4.38;71.10
67842;BME280;54642;59.126;37.876;2023-02-12T07:34:21;100090.22;;;-4.28;70.83
67842;BME280;54642;59.126;37.876;2023-02-12T07:36:47;100074.13;;;-4.45;70.66
67842;BME280;54642;59.126;37.876;2023-02-12T07:39:13;100102.78;;;-4.29;71.04
67842;BME280;54642;59.126;37.876;2023-02-12T07:41:39;100085.47;;;-4.38;71.20
67842;BME280;54642;59.126;37.876;2023-02-12T07:44:07;100094.50;;;-4.27;71.04
67842;BME280;54642;59.126;37.876;2023-02-12T07:46:44;100099.75;;;-4.24;71.19
67842;BME280;54642;59.126;37.876;2023-02-12T07:49:18;100107.63;;;-4.34;71.31
67842;BME280;54642;59.126;37.876;2023-02-12T07:51:45;100100.47;;;-4.41;70.96
67842;BME280;54642;59.126;37.876;2023-02-12T07:54:11;100116.34;;;-4.29;71.13
67842;BME280;54642;59.126;37.876;2023-02-12T07:56:39;100103.41;;;-4.18;71.06
67842;BME280;54642;59.126;37.876;2023-02-12T07:59:09;100118.56;;;-4.04;70.99
67842;BME280;54642;59.126;37.876;2023-02-12T08:01:37;100101.78;;;-4.02;70.99
67842;BME280;54642;59.126;37.876;2023-02-12T08:04:06;100113.03;;;-3.96;70.52
67842;BME280;54642;59.126;37.876;2023-02-12T08:06:35;100133.00;;;-4.01;70.67
67842;BME280;54642;59.126;37.876;2023-02-12T08:09:04;100125.19;;;-4.06;70.92
67842;BME280;54642;59.126;37.876;2023-02-12T08:11:30;100132.56;;;-3.94;70.68
67842;BME280;54642;59.126;37.876;2023-02-12T08:13:58;100137.53;;;-3.95;70.84
67842;BME280;54642;59.126;37.876;2023-02-12T08:16:26;100132.88;;;-4.04;71.05
67842;BME280;54642;59.126;37.876;2023-02-12T08:18:52;100123.97;;;-4.12;70.99
67842;BME280;54642;59.126;37.876;2023-02-12T08:21:20;100151.44;;;-4.04;70.72
67842;BME280;54642;59.126;37.876;2023-02-12T08:23:47;100143.91;;;-4.18;70.90
67842;BME280;54642;59.126;37.876;2023-02-12T08:26:27;100148.41;;;-4.13;71.12
67842;BME280;54642;59.126;37.876;2023-02-12T08:28:56;100148.13;;;-4.03;70.79
67842;BME280;54642;59.126;37.876;2023-02-12T08:31:26;100097.59;;;-4.32;70.92
67842;BME280;54642;59.126;37.876;2023-02-12T08:33:54;100141.41;;;-4.02;70.82
67842;BME280;54642;59.126;37.876;2023-02-12T08:36:25;100143.31;;;-3.98;70.57
67842;BME280;54642;59.126;37.876;2023-02-12T08:38:52;100084.22;;;-4.30;70.71
67842;BME280;54642;59.126;37.876;2023-02-12T08:41:23;100118.59;;;-4.18;70.88
67842;BME280;54642;59.126;37.876;2023-02-12T08:43:52;100155.19;;;-3.97;71.12
67842;BME280;54642;59.126;37.876;2023-02-12T08:46:20;100068.81;;;-4.34;70.76
67842;BME280;54642;59.126;37.876;2023-02-12T08:48:47;100115.63;;;-4.11;70.61
67842;BME280;54642;59.126;37.876;2023-02-12T08:51:21;100098.19;;;-4.22;70.44
67842;BME280;54642;59.126;37.876;2023-02-12T08:53:50;100162.78;;;-3.97;70.63
67842;BME280;54642;59.126;37.876;2023-02-12T08:56:17;100101.31;;;-4.26;70.52
67842;BME280;54642;59.126;37.876;2023-02-12T08:58:44;100038.91;;;-4.56;70.39
67842;BME280;54642;59.126;37.876;2023-02-12T09:01:21;100162.56;;;-3.85;70.70
67842;BME280;54642;59.126;37.876;2023-02-12T09:03:48;100175.50;;;-3.80;70.41
67842;BME280;54642;59.126;37.876;2023-02-12T09:06:15;100167.81;;;-3.82;70.00
67842;BME280;54642;59.126;37.876;2023-02-12T09:08:42;100160.44;;;-3.77;69.83
67842;BME280;54642;59.126;37.876;2023-02-12T09:11:10;100144.22;;;-3.81;69.82
67842;BME280;54642;59.126;37.876;2023-02-12T09:13:38;100125.06;;;-3.76;69.86
67842;BME280;54642;59.126;37.876;2023-02-12T09:16:05;100187.13;;;-3.36;69.76
67842;BME280;54642;59.126;37.876;2023-02-12T09:18:32;100185.47;;;-3.36;69.67
67842;BME280;54642;59.126;37.876;2023-02-12T09:21:07;100168.03;;;-3.30;69.67
67842;BME280;54642;59.126;37.876;2023-02-12T09:23:33;100203.31;;;-3.18;69.51
67842;BME280;54642;59.126;37.876;2023-02-12T09:26:03;100172.41;;;-3.27;69.40
67842;BME280;54642;59.126;37.876;2023-02-12T09:28:29;100126.53;;;-3.65;69.29
67842;BME280;54642;59.126;37.876;2023-02-12T09:30:55;100069.28;;;-3.94;69.39
67842;BME280;54642;59.126;37.876;2023-02-12T09:33:21;100128.75;;;-3.54;69.63
67842;BME280;54642;59.126;37.876;2023-02-12T09:35:47;100194.59;;;-3.23;69.26
67842;BME280;54642;59.126;37.876;2023-02-12T09:38:13;100202.28;;;-3.21;69.36
67842;BME280;54642;59.126;37.876;2023-02-12T09:46:33;100215.50;;;-3.11;69.48
67842;BME280;54642;59.126;37.876;2023-02-12T09:51:34;100219.63;;;-2.96;69.52
67842;BME280;54642;59.126;37.876;2023-02-12T09:54:14;100159.09;;;-3.23;69.40
67842;BME280;54642;59.126;37.876;2023-02-12T09:56:47;100229.59;;;-2.83;69.10
67842;BME280;54642;59.126;37.876;2023-02-12T09:59:27;100231.66;;;-2.92;69.06
67842;BME280;54642;59.126;37.876;2023-02-12T10:01:56;100206.16;;;-3.12;69.23
67842;BME280;54642;59.126;37.876;2023-02-12T10:04:23;100230.41;;;-2.84;69.07
67842;BME280;54642;59.126;37.876;2023-02-12T10:07:51;100231.44;;;-2.80;69.05
67842;BME280;54642;59.126;37.876;2023-02-12T10:12:49;100231.72;;;-2.58;68.62
67842;BME280;54642;59.126;37.876;2023-02-12T10:15:31;100228.53;;;-2.37;68.55
67842;BME280;54642;59.126;37.876;2023-02-12T10:18:10;100123.91;;;-2.84;67.87
67842;BME280;54642;59.126;37.876;2023-02-12T10:23:59;100230.34;;;-2.00;67.63
67842;BME280;54642;59.126;37.876;2023-02-12T10:26:52;100168.91;;;-2.27;67.77
67842;BME280;54642;59.126;37.876;2023-02-12T10:29:33;100196.78;;;-2.11;67.76
67842;BME280;54642;59.126;37.876;2023-02-12T10:32:03;100232.22;;;-1.78;67.75
67842;BME280;54642;59.126;37.876;2023-02-12T10:34:35;100225.25;;;-1.64;67.45
67842;BME280;54642;59.126;37.876;2023-02-12T10:40:38;100219.19;;;-0.91;66.45
67842;BME280;54642;59.126;37.876;2023-02-12T10:43:10;100180.09;;;-1.13;65.77
67842;BME280;54642;59.126;37.876;2023-02-12T10:45:39;100206.81;;;-1.03;65.98
67842;BME280;54642;59.126;37.876;2023-02-12T10:48:19;100227.09;;;-1.05;65.72
67842;BME280;54642;59.126;37.876;2023-02-12T10:53:38;100196.97;;;-1.15;66.30
67842;BME280;54642;59.126;37.876;2023-02-12T10:58:52;100177.69;;;-0.29;64.64
67842;BME280;54642;59.126;37.876;2023-02-12T11:01:35;100226.28;;;0.41;63.50
67842;BME280;54642;59.126;37.876;2023-02-12T11:06:57;100221.84;;;0.35;62.60
67842;BME280;54642;59.126;37.876;2023-02-12T11:09:34;100233.44;;;0.06;62.59
67842;BME280;54642;59.126;37.876;2023-02-12T11:12:01;100239.34;;;-0.36;63.32
67842;BME280;54642;59.126;37.876;2023-02-12T11:14:28;100253.69;;;-0.79;63.94
67842;BME280;54642;59.126;37.876;2023-02-12T11:16:57;100192.91;;;-1.49;64.57
67842;BME280;54642;59.126;37.876;2023-02-12T11:19:28;100228.41;;;-1.50;64.93
67842;BME280;54642;59.126;37.876;2023-02-12T11:22:09;100248.09;;;-1.46;65.45
67842;BME280;54642;59.126;37.876;2023-02-12T11:24:36;100191.28;;;-1.84;65.27
67842;BME280;54642;59.126;37.876;2023-02-12T11:27:24;100232.56;;;-1.70;65.31
67842;BME280;54642;59.126;37.876;2023-02-12T11:30:18;100274.53;;;-1.43;65.88
67842;BME280;54642;59.126;37.876;2023-02-12T11:32:45;100255.72;;;-1.46;65.42
67842;BME280;54642;59.126;37.876;2023-02-12T11:35:22;100203.16;;;-1.65;65.56
67842;BME280;54642;59.126;37.876;2023-02-12T11:37:55;100271.56;;;-1.15;64.98
67842;BME280;54642;59.126;37.876;2023-02-12T11:40:27;100255.06;;;-1.05;65.18
67842;BME280;54642;59.126;37.876;2023-02-12T11:42:59;100249.38;;;-0.99;64.57
67842;BME280;54642;59.126;37.876;2023-02-12T11:45:42;100273.09;;;-1.00;64.36
67842;BME280;54642;59.126;37.876;2023-02-12T11:48:37;100244.97;;;-1.41;64.51
67842;BME280;54642;59.126;37.876;2023-02-12T11:51:17;100242.59;;;-1.56;65.07
67842;BME280;54642;59.126;37.876;2023-02-12T11:53:48;100270.53;;;-1.38;65.37
67842;BME280;54642;59.126;37.876;2023-02-12T11:56:15;100269.25;;;-1.10;65.11
67842;BME280;54642;59.126;37.876;2023-02-12T11:58:42;100254.22;;;-1.05;65.19
67842;BME280;54642;59.126;37.876;2023-02-12T12:01:22;100210.94;;;-1.25;65.03
67842;BME280;54642;59.126;37.876;2023-02-12T12:04:12;100267.13;;;-0.62;65.28
67842;BME280;54642;59.126;37.876;2023-02-12T12:06:48;100280.78;;;-0.40;65.00
67842;BME280;54642;59.126;37.876;2023-02-12T12:17:59;100209.69;;;0.97;63.83
67842;BME280;54642;59.126;37.876;2023-02-12T12:20:53;100267.44;;;1.92;62.80
67842;BME280;54642;59.126;37.876;2023-02-12T12:23:24;100268.34;;;2.19;62.18
67842;BME280;54642;59.126;37.876;2023-02-12T12:26:00;100187.75;;;1.52;61.59
67842;BME280;54642;59.126;37.876;2023-02-12T12:28:31;100180.03;;;0.76;61.58
67842;BME280;54642;59.126;37.876;2023-02-12T12:41:14;100289.06;;;-0.05;62.55
67842;BME280;54642;59.126;37.876;2023-02-12T12:49:42;100289.28;;;-0.98;63.42
67842;BME280;54642;59.126;37.876;2023-02-12T13:28:41;100347.97;;;-1.83;64.80
67842;BME280;54642;59.126;37.876;2023-02-12T13:31:13;100333.44;;;-1.51;65.36
67842;BME280;54642;59.126;37.876;2023-02-12T13:33:58;100315.25;;;-1.05;65.45
67842;BME280;54642;59.126;37.876;2023-02-12T13:36:25;100322.41;;;-0.79;64.73
67842;BME280;54642;59.126;37.876;2023-02-12T13:39:00;100304.78;;;-0.74;64.17
67842;BME280;54642;59.126;37.876;2023-02-12T13:41:30;100327.47;;;-0.59;63.86
67842;BME280;54642;59.126;37.876;2023-02-12T13:44:25;100327.22;;;-0.46;63.63
67842;BME280;54642;59.126;37.876;2023-02-12T13:47:13;100328.31;;;-0.41;63.64
67842;BME280;54642;59.126;37.876;2023-02-12T13:52:39;100320.66;;;-0.60;63.15
67842;BME280;54642;59.126;37.876;2023-02-12T13:55:36;100322.72;;;-0.71;63.49
67842;BME280;54642;59.126;37.876;2023-02-12T13:58:39;100326.38;;;-1.03;63.31
67842;BME280;54642;59.126;37.876;2023-02-12T14:01:33;100336.19;;;-1.29;63.41
67842;BME280;54642;59.126;37.876;2023-02-12T14:07:10;100337.59;;;-1.70;63.87
67842;BME280;54642;59.126;37.876;2023-02-12T14:09:42;100283.06;;;-2.29;64.13
67842;BME280;54642;59.126;37.876;2023-02-12T14:14:54;100325.69;;;-2.56;64.68
67842;BME280;54642;59.126;37.876;2023-02-12T14:23:00;100225.91;;;-3.69;65.06
67842;BME280;54642;59.126;37.876;2023-02-12T14:25:38;100344.78;;;-3.11;65.35
67842;BME280;54642;59.126;37.876;2023-02-12T14:28:21;100266.72;;;-3.64;65.36
67842;BME280;54642;59.126;37.876;2023-02-12T14:33:45;100291.84;;;-3.67;65.56
67842;BME280;54642;59.126;37.876;2023-02-12T14:39:01;100181.94;;;-4.47;65.65
67842;BME280;54642;59.126;37.876;2023-02-12T14:46:49;100343.81;;;-3.59;66.09
67842;BME280;54642;59.126;37.876;2023-02-12T14:51:52;100346.72;;;-3.68;66.20
67842;BME280;54642;59.126;37.876;2023-02-12T14:56:59;100326.00;;;-3.90;66.38
67842;BME280;54642;59.126;37.876;2023-02-12T14:59:26;100320.69;;;-3.95;66.42
67842;BME280;54642;59.126;37.876;2023-02-12T15:01:59;100303.75;;;-4.11;66.24
67842;BME280;54642;59.126;37.876;2023-02-12T15:04:30;100282.53;;;-4.28;66.28
67842;BME280;54642;59.126;37.876;2023-02-12T15:07:02;100343.31;;;-3.98;66.64
67842;BME280;54642;59.126;37.876;2023-02-12T15:09:49;100369.38;;;-3.99;66.66
67842;BME280;54642;59.126;37.876;2023-02-12T15:12:20;100298.41;;;-4.30;66.37
67842;BME280;54642;59.126;37.876;2023-02-12T15:15:06;100358.81;;;-4.07;66.47
67842;BME280;54642;59.126;37.876;2023-02-12T15:17:39;100317.50;;;-4.35;66.27
67842;BME280;54642;59.126;37.876;2023-02-12T15:20:18;100349.47;;;-4.23;66.44
67842;BME280;54642;59.126;37.876;2023-02-12T15:22:45;100343.22;;;-4.43;66.49
67842;BME280;54642;59.126;37.876;2023-02-12T15:27:48;100251.06;;;-5.04;66.60
67842;BME280;54642;59.126;37.876;2023-02-12T15:30:20;100293.16;;;-4.76;66.73
67842;BME280;54642;59.126;37.876;2023-02-12T15:32:46;100359.13;;;-4.30;66.91
67842;BME280;54642;59.126;37.876;2023-02-12T15:35:26;100361.47;;;-4.33;66.77
67842;BME280;54642;59.126;37.876;2023-02-12T15:37:53;100329.22;;;-4.51;66.60
67842;BME280;54642;59.126;37.876;2023-02-12T15:40:20;100301.28;;;-4.67;66.56
67842;BME280;54642;59.126;37.876;2023-02-12T15:42:56;100308.22;;;-4.65;66.81
67842;BME280;54642;59.126;37.876;2023-02-12T15:45:26;100357.22;;;-4.34;66.74
67842;BME280;54642;59.126;37.876;2023-02-12T15:48:19;100372.22;;;-4.37;66.86
67842;BME280;54642;59.126;37.876;2023-02-12T15:50:54;100329.75;;;-4.56;66.58